sensor_id;sensor_type;location;lat;lon;timestamp;P1;durP1;ratioP1;P2;durP2;ratioP2
12110;SDS011;6119;52.372;8.990;2023-03-04T00:00:12;10.00;;;3.50;;
12110;SDS011;6119;52.372;8.990;2023-03-04T00:03:00;16.83;;;3.57;;
12110;SDS011;6119;52.372;8.990;2023-03-04T00:05:48;15.27;;;3.43;;
12110;SDS011;6119;52.372;8.990;2023-03-04T00:08:35;9.80;;;2.67;;
12110;SDS011;6119;52.372;8.990;2023-03-04T00:11:21;11.67;;;3.27;;
12110;SDS011;6119;52.372;8.990;2023-03-04T00:14:08;13.97;;;3.27;;
12110;SDS011;6119;52.372;8.990;2023-03-04T00:16:54;10.93;;;3.10;;
12110;SDS011;6119;52.372;8.990;2023-03-04T00:19:41;10.50;;;2.40;;
12110;SDS011;6119;52.372;8.990;2023-03-04T00:22:28;9.27;;;2.37;;
12110;SDS011;6119;52.372;8.990;2023-03-04T00:25:15;8.10;;;2.20;;
12110;SDS011;6119;52.372;8.990;2023-03-04T00:28:02;10.73;;;2.83;;
12110;SDS011;6119;52.372;8.990;2023-03-04T00:30:49;9.70;;;3.07;;
12110;SDS011;6119;52.372;8.990;2023-03-04T00:33:35;11.00;;;2.97;;
12110;SDS011;6119;52.372;8.990;2023-03-04T00:36:23;10.73;;;2.60;;
12110;SDS011;6119;52.372;8.990;2023-03-04T00:39:11;11.80;;;2.87;;
12110;SDS011;6119;52.372;8.990;2023-03-04T00:41:59;7.87;;;2.10;;
12110;SDS011;6119;52.372;8.990;2023-03-04T00:44:45;10.30;;;2.70;;
12110;SDS011;6119;52.372;8.990;2023-03-04T00:47:33;9.53;;;2.73;;
12110;SDS011;6119;52.372;8.990;2023-03-04T00:50:19;4.93;;;1.80;;
12110;SDS011;6119;52.372;8.990;2023-03-04T00:53:06;14.37;;;2.60;;
12110;SDS011;6119;52.372;8.990;2023-03-04T00:55:54;14.90;;;2.50;;
12110;SDS011;6119;52.372;8.990;2023-03-04T00:58:40;12.13;;;2.60;;
12110;SDS011;6119;52.372;8.990;2023-03-04T01:01:27;14.43;;;2.70;;
12110;SDS011;6119;52.372;8.990;2023-03-04T01:04:14;7.77;;;2.20;;
12110;SDS011;6119;52.372;8.990;2023-03-04T01:07:00;8.70;;;2.60;;
12110;SDS011;6119;52.372;8.990;2023-03-04T01:09:46;13.50;;;2.30;;
12110;SDS011;6119;52.372;8.990;2023-03-04T01:12:34;10.20;;;2.43;;
12110;SDS011;6119;52.372;8.990;2023-03-04T01:15:21;8.77;;;2.43;;
12110;SDS011;6119;52.372;8.990;2023-03-04T01:18:08;10.33;;;2.13;;
12110;SDS011;6119;52.372;8.990;2023-03-04T01:20:55;11.33;;;2.47;;
12110;SDS011;6119;52.372;8.990;2023-03-04T01:23:42;12.47;;;2.90;;
12110;SDS011;6119;52.372;8.990;2023-03-04T01:26:28;10.13;;;2.30;;
12110;SDS011;6119;52.372;8.990;2023-03-04T01:29:16;11.43;;;2.43;;
12110;SDS011;6119;52.372;8.990;2023-03-04T01:32:03;10.30;;;2.50;;
12110;SDS011;6119;52.372;8.990;2023-03-04T01:34:50;8.83;;;1.73;;
12110;SDS011;6119;52.372;8.990;2023-03-04T01:37:36;6.43;;;2.47;;
12110;SDS011;6119;52.372;8.990;2023-03-04T01:40:23;10.67;;;2.60;;
12110;SDS011;6119;52.372;8.990;2023-03-04T01:43:10;16.97;;;2.43;;
12110;SDS011;6119;52.372;8.990;2023-03-04T01:46:05;10.00;;;2.40;;
12110;SDS011;6119;52.372;8.990;2023-03-04T01:48:52;10.20;;;1.97;;
12110;SDS011;6119;52.372;8.990;2023-03-04T01:51:39;5.77;;;2.67;;
12110;SDS011;6119;52.372;8.990;2023-03-04T01:54:27;6.63;;;1.90;;
12110;SDS011;6119;52.372;8.990;2023-03-04T01:57:14;7.93;;;2.23;;
12110;SDS011;6119;52.372;8.990;2023-03-04T02:03:11;6.53;;;1.97;;
12110;SDS011;6119;52.372;8.990;2023-03-04T02:05:59;10.63;;;2.30;;
12110;SDS011;6119;52.372;8.990;2023-03-04T02:08:46;11.13;;;1.50;;
12110;SDS011;6119;52.372;8.990;2023-03-04T02:11:33;4.60;;;1.40;;
12110;SDS011;6119;52.372;8.990;2023-03-04T02:14:20;5.33;;;1.90;;
12110;SDS011;6119;52.372;8.990;2023-03-04T02:17:09;15.57;;;2.70;;
12110;SDS011;6119;52.372;8.990;2023-03-04T02:19:59;3.73;;;1.37;;
12110;SDS011;6119;52.372;8.990;2023-03-04T02:22:53;7.93;;;1.93;;
12110;SDS011;6119;52.372;8.990;2023-03-04T02:25:46;13.87;;;2.43;;
12110;SDS011;6119;52.372;8.990;2023-03-04T02:28:37;9.97;;;1.90;;
12110;SDS011;6119;52.372;8.990;2023-03-04T02:31:25;9.07;;;1.60;;
12110;SDS011;6119;52.372;8.990;2023-03-04T02:34:15;3.80;;;1.50;;
12110;SDS011;6119;52.372;8.990;2023-03-04T02:37:05;8.53;;;1.70;;
12110;SDS011;6119;52.372;8.990;2023-03-04T02:39:51;2.90;;;1.40;;
12110;SDS011;6119;52.372;8.990;2023-03-04T02:42:38;5.47;;;1.27;;
12110;SDS011;6119;52.372;8.990;2023-03-04T02:45:35;10.33;;;1.70;;
12110;SDS011;6119;52.372;8.990;2023-03-04T02:48:23;9.50;;;1.70;;
12110;SDS011;6119;52.372;8.990;2023-03-04T02:51:09;4.60;;;1.37;;
12110;SDS011;6119;52.372;8.990;2023-03-04T02:53:56;11.87;;;1.70;;
12110;SDS011;6119;52.372;8.990;2023-03-04T02:56:45;8.07;;;1.53;;
12110;SDS011;6119;52.372;8.990;2023-03-04T02:59:32;5.50;;;1.50;;
12110;SDS011;6119;52.372;8.990;2023-03-04T03:02:21;10.10;;;1.63;;
12110;SDS011;6119;52.372;8.990;2023-03-04T03:05:08;5.83;;;1.27;;
12110;SDS011;6119;52.372;8.990;2023-03-04T03:07:54;5.53;;;1.57;;
12110;SDS011;6119;52.372;8.990;2023-03-04T03:10:41;6.23;;;1.40;;
12110;SDS011;6119;52.372;8.990;2023-03-04T03:13:28;6.33;;;1.63;;
12110;SDS011;6119;52.372;8.990;2023-03-04T03:16:14;12.37;;;1.83;;
12110;SDS011;6119;52.372;8.990;2023-03-04T03:19:02;8.57;;;1.83;;
12110;SDS011;6119;52.372;8.990;2023-03-04T03:21:48;2.23;;;1.20;;
12110;SDS011;6119;52.372;8.990;2023-03-04T03:24:35;4.30;;;1.37;;
12110;SDS011;6119;52.372;8.990;2023-03-04T03:27:21;5.23;;;1.47;;
12110;SDS011;6119;52.372;8.990;2023-03-04T03:30:08;9.67;;;1.40;;
12110;SDS011;6119;52.372;8.990;2023-03-04T03:32:57;6.80;;;1.67;;
12110;SDS011;6119;52.372;8.990;2023-03-04T03:35:45;4.10;;;1.27;;
12110;SDS011;6119;52.372;8.990;2023-03-04T03:38:31;5.60;;;1.83;;
12110;SDS011;6119;52.372;8.990;2023-03-04T03:41:18;4.63;;;1.30;;
12110;SDS011;6119;52.372;8.990;2023-03-04T03:44:04;5.43;;;1.30;;
12110;SDS011;6119;52.372;8.990;2023-03-04T03:46:51;3.67;;;1.70;;
12110;SDS011;6119;52.372;8.990;2023-03-04T03:49:37;12.17;;;1.40;;
12110;SDS011;6119;52.372;8.990;2023-03-04T03:52:25;5.07;;;1.33;;
12110;SDS011;6119;52.372;8.990;2023-03-04T03:55:11;5.70;;;1.33;;
12110;SDS011;6119;52.372;8.990;2023-03-04T03:57:57;3.73;;;1.10;;
12110;SDS011;6119;52.372;8.990;2023-03-04T04:00:44;4.70;;;1.23;;
12110;SDS011;6119;52.372;8.990;2023-03-04T04:03:30;7.37;;;1.60;;
12110;SDS011;6119;52.372;8.990;2023-03-04T04:06:17;4.00;;;1.23;;
12110;SDS011;6119;52.372;8.990;2023-03-04T04:09:05;4.70;;;1.33;;
12110;SDS011;6119;52.372;8.990;2023-03-04T04:11:52;15.70;;;1.50;;
12110;SDS011;6119;52.372;8.990;2023-03-04T04:14:38;6.23;;;1.57;;
12110;SDS011;6119;52.372;8.990;2023-03-04T04:17:25;4.37;;;1.30;;
12110;SDS011;6119;52.372;8.990;2023-03-04T04:20:12;7.13;;;1.23;;
12110;SDS011;6119;52.372;8.990;2023-03-04T04:22:58;6.93;;;1.37;;
12110;SDS011;6119;52.372;8.990;2023-03-04T04:25:46;3.60;;;1.40;;
12110;SDS011;6119;52.372;8.990;2023-03-04T04:28:33;9.23;;;1.40;;
12110;SDS011;6119;52.372;8.990;2023-03-04T04:31:19;7.67;;;1.30;;
12110;SDS011;6119;52.372;8.990;2023-03-04T04:34:06;7.03;;;1.57;;
12110;SDS011;6119;52.372;8.990;2023-03-04T04:36:52;4.97;;;1.43;;
12110;SDS011;6119;52.372;8.990;2023-03-04T04:39:39;7.90;;;1.63;;
12110;SDS011;6119;52.372;8.990;2023-03-04T04:42:27;4.20;;;1.23;;
12110;SDS011;6119;52.372;8.990;2023-03-04T04:45:13;8.37;;;1.37;;
12110;SDS011;6119;52.372;8.990;2023-03-04T04:47:59;5.47;;;1.20;;
12110;SDS011;6119;52.372;8.990;2023-03-04T04:50:46;5.40;;;1.33;;
12110;SDS011;6119;52.372;8.990;2023-03-04T04:53:38;6.93;;;1.50;;
12110;SDS011;6119;52.372;8.990;2023-03-04T04:56:25;5.40;;;1.33;;
12110;SDS011;6119;52.372;8.990;2023-03-04T04:59:13;3.77;;;1.27;;
12110;SDS011;6119;52.372;8.990;2023-03-04T05:02:00;2.77;;;1.07;;
12110;SDS011;6119;52.372;8.990;2023-03-04T05:04:46;8.63;;;1.30;;
12110;SDS011;6119;52.372;8.990;2023-03-04T05:07:33;4.20;;;1.00;;
12110;SDS011;6119;52.372;8.990;2023-03-04T05:10:19;8.77;;;1.40;;
12110;SDS011;6119;52.372;8.990;2023-03-04T05:13:06;7.50;;;1.37;;
12110;SDS011;6119;52.372;8.990;2023-03-04T05:15:54;4.67;;;1.10;;
12110;SDS011;6119;52.372;8.990;2023-03-04T05:18:42;8.23;;;1.63;;
12110;SDS011;6119;52.372;8.990;2023-03-04T05:21:28;7.03;;;1.60;;
12110;SDS011;6119;52.372;8.990;2023-03-04T05:24:15;7.83;;;1.27;;
12110;SDS011;6119;52.372;8.990;2023-03-04T05:27:01;1.20;;;0.90;;
12110;SDS011;6119;52.372;8.990;2023-03-04T05:29:48;7.53;;;1.80;;
12110;SDS011;6119;52.372;8.990;2023-03-04T05:32:36;5.23;;;1.20;;
12110;SDS011;6119;52.372;8.990;2023-03-04T05:35:23;9.43;;;1.67;;
12110;SDS011;6119;52.372;8.990;2023-03-04T05:38:14;5.00;;;1.37;;
12110;SDS011;6119;52.372;8.990;2023-03-04T05:41:03;8.50;;;1.90;;
12110;SDS011;6119;52.372;8.990;2023-03-04T05:43:51;6.00;;;1.53;;
12110;SDS011;6119;52.372;8.990;2023-03-04T05:46:37;6.03;;;1.90;;
12110;SDS011;6119;52.372;8.990;2023-03-04T05:49:25;7.53;;;1.60;;
12110;SDS011;6119;52.372;8.990;2023-03-04T05:52:12;2.43;;;1.00;;
12110;SDS011;6119;52.372;8.990;2023-03-04T05:54:58;3.63;;;1.20;;
12110;SDS011;6119;52.372;8.990;2023-03-04T05:57:45;4.93;;;1.27;;
12110;SDS011;6119;52.372;8.990;2023-03-04T06:00:32;3.30;;;1.30;;
12110;SDS011;6119;52.372;8.990;2023-03-04T06:03:19;8.40;;;1.70;;
12110;SDS011;6119;52.372;8.990;2023-03-04T06:06:08;6.70;;;2.60;;
12110;SDS011;6119;52.372;8.990;2023-03-04T06:08:55;2.17;;;1.57;;
12110;SDS011;6119;52.372;8.990;2023-03-04T06:11:43;4.13;;;1.80;;
12110;SDS011;6119;52.372;8.990;2023-03-04T06:14:29;9.83;;;1.50;;
12110;SDS011;6119;52.372;8.990;2023-03-04T06:17:16;5.17;;;2.00;;
12110;SDS011;6119;52.372;8.990;2023-03-04T06:20:03;4.60;;;1.50;;
12110;SDS011;6119;52.372;8.990;2023-03-04T06:22:52;3.17;;;1.30;;
12110;SDS011;6119;52.372;8.990;2023-03-04T06:25:39;4.53;;;1.23;;
12110;SDS011;6119;52.372;8.990;2023-03-04T06:28:25;6.60;;;1.60;;
12110;SDS011;6119;52.372;8.990;2023-03-04T06:31:12;12.90;;;1.90;;
12110;SDS011;6119;52.372;8.990;2023-03-04T06:33:59;7.40;;;2.37;;
12110;SDS011;6119;52.372;8.990;2023-03-04T06:36:46;7.73;;;1.67;;
12110;SDS011;6119;52.372;8.990;2023-03-04T06:39:33;5.40;;;1.53;;
12110;SDS011;6119;52.372;8.990;2023-03-04T06:42:20;8.97;;;1.63;;
12110;SDS011;6119;52.372;8.990;2023-03-04T06:45:07;4.30;;;1.53;;
12110;SDS011;6119;52.372;8.990;2023-03-04T06:47:54;8.60;;;1.50;;
12110;SDS011;6119;52.372;8.990;2023-03-04T06:50:41;7.37;;;1.63;;
12110;SDS011;6119;52.372;8.990;2023-03-04T06:53:27;4.13;;;1.20;;
12110;SDS011;6119;52.372;8.990;2023-03-04T06:56:15;9.13;;;1.60;;
12110;SDS011;6119;52.372;8.990;2023-03-04T06:59:02;5.60;;;1.50;;
12110;SDS011;6119;52.372;8.990;2023-03-04T07:01:49;7.67;;;1.73;;
12110;SDS011;6119;52.372;8.990;2023-03-04T07:04:36;7.80;;;1.57;;
12110;SDS011;6119;52.372;8.990;2023-03-04T07:07:23;7.57;;;1.40;;
12110;SDS011;6119;52.372;8.990;2023-03-04T07:10:11;6.67;;;1.80;;
12110;SDS011;6119;52.372;8.990;2023-03-04T07:12:58;4.53;;;1.60;;
12110;SDS011;6119;52.372;8.990;2023-03-04T07:15:45;5.83;;;1.40;;
12110;SDS011;6119;52.372;8.990;2023-03-04T07:18:32;10.30;;;2.20;;
12110;SDS011;6119;52.372;8.990;2023-03-04T07:21:18;6.50;;;1.60;;
12110;SDS011;6119;52.372;8.990;2023-03-04T07:24:05;4.53;;;1.87;;
12110;SDS011;6119;52.372;8.990;2023-03-04T07:26:52;4.30;;;1.90;;
12110;SDS011;6119;52.372;8.990;2023-03-04T07:29:39;5.70;;;1.40;;
12110;SDS011;6119;52.372;8.990;2023-03-04T07:32:26;8.13;;;1.90;;
12110;SDS011;6119;52.372;8.990;2023-03-04T07:35:12;5.33;;;1.77;;
12110;SDS011;6119;52.372;8.990;2023-03-04T07:37:59;4.87;;;1.67;;
12110;SDS011;6119;52.372;8.990;2023-03-04T07:40:45;9.30;;;1.93;;
12110;SDS011;6119;52.372;8.990;2023-03-04T07:43:40;9.10;;;1.80;;
12110;SDS011;6119;52.372;8.990;2023-03-04T07:46:28;6.87;;;1.50;;
12110;SDS011;6119;52.372;8.990;2023-03-04T07:49:15;6.40;;;1.80;;
12110;SDS011;6119;52.372;8.990;2023-03-04T07:52:02;8.70;;;2.13;;
12110;SDS011;6119;52.372;8.990;2023-03-04T07:54:49;6.53;;;2.00;;
12110;SDS011;6119;52.372;8.990;2023-03-04T07:57:37;4.53;;;2.00;;
12110;SDS011;6119;52.372;8.990;2023-03-04T08:00:24;4.77;;;1.63;;
12110;SDS011;6119;52.372;8.990;2023-03-04T08:03:12;2.40;;;1.40;;
12110;SDS011;6119;52.372;8.990;2023-03-04T08:05:58;6.43;;;2.00;;
12110;SDS011;6119;52.372;8.990;2023-03-04T08:08:45;3.80;;;1.57;;
12110;SDS011;6119;52.372;8.990;2023-03-04T08:11:32;10.97;;;1.77;;
12110;SDS011;6119;52.372;8.990;2023-03-04T08:14:20;4.93;;;2.00;;
12110;SDS011;6119;52.372;8.990;2023-03-04T08:17:07;7.00;;;1.97;;
12110;SDS011;6119;52.372;8.990;2023-03-04T08:19:55;6.20;;;2.37;;
12110;SDS011;6119;52.372;8.990;2023-03-04T08:22:42;4.73;;;2.17;;
12110;SDS011;6119;52.372;8.990;2023-03-04T08:25:28;5.67;;;1.80;;
12110;SDS011;6119;52.372;8.990;2023-03-04T08:28:15;4.33;;;1.20;;
12110;SDS011;6119;52.372;8.990;2023-03-04T08:31:02;2.47;;;1.37;;
12110;SDS011;6119;52.372;8.990;2023-03-04T08:33:49;6.70;;;1.70;;
12110;SDS011;6119;52.372;8.990;2023-03-04T08:36:38;3.03;;;1.93;;
12110;SDS011;6119;52.372;8.990;2023-03-04T08:39:26;6.80;;;1.90;;
12110;SDS011;6119;52.372;8.990;2023-03-04T08:42:12;3.93;;;1.90;;
12110;SDS011;6119;52.372;8.990;2023-03-04T08:44:59;10.97;;;3.67;;
12110;SDS011;6119;52.372;8.990;2023-03-04T08:47:46;4.17;;;1.60;;
12110;SDS011;6119;52.372;8.990;2023-03-04T08:50:32;7.30;;;2.00;;
12110;SDS011;6119;52.372;8.990;2023-03-04T08:53:20;3.97;;;2.00;;
12110;SDS011;6119;52.372;8.990;2023-03-04T08:56:07;5.80;;;1.73;;
12110;SDS011;6119;52.372;8.990;2023-03-04T08:58:54;5.60;;;1.63;;
12110;SDS011;6119;52.372;8.990;2023-03-04T09:01:41;6.53;;;1.93;;
12110;SDS011;6119;52.372;8.990;2023-03-04T09:04:28;3.90;;;1.30;;
12110;SDS011;6119;52.372;8.990;2023-03-04T09:07:14;3.70;;;1.57;;
12110;SDS011;6119;52.372;8.990;2023-03-04T09:10:02;2.20;;;1.63;;
12110;SDS011;6119;52.372;8.990;2023-03-04T09:12:49;3.07;;;1.83;;
12110;SDS011;6119;52.372;8.990;2023-03-04T09:15:36;3.80;;;1.30;;
12110;SDS011;6119;52.372;8.990;2023-03-04T09:18:23;4.80;;;1.47;;
12110;SDS011;6119;52.372;8.990;2023-03-04T09:21:11;3.17;;;1.30;;
12110;SDS011;6119;52.372;8.990;2023-03-04T09:23:57;4.07;;;1.63;;
12110;SDS011;6119;52.372;8.990;2023-03-04T09:26:48;2.70;;;1.40;;
12110;SDS011;6119;52.372;8.990;2023-03-04T09:29:35;1.97;;;1.33;;
12110;SDS011;6119;52.372;8.990;2023-03-04T09:32:21;6.13;;;1.47;;
12110;SDS011;6119;52.372;8.990;2023-03-04T09:35:08;4.00;;;1.27;;
12110;SDS011;6119;52.372;8.990;2023-03-04T09:37:54;7.27;;;1.40;;
12110;SDS011;6119;52.372;8.990;2023-03-04T09:40:42;6.40;;;1.63;;
12110;SDS011;6119;52.372;8.990;2023-03-04T09:43:32;5.63;;;1.93;;
12110;SDS011;6119;52.372;8.990;2023-03-04T09:46:21;6.23;;;1.50;;
12110;SDS011;6119;52.372;8.990;2023-03-04T09:49:14;4.37;;;1.90;;
12110;SDS011;6119;52.372;8.990;2023-03-04T09:52:03;2.53;;;1.77;;
12110;SDS011;6119;52.372;8.990;2023-03-04T09:55:03;4.87;;;2.00;;
12110;SDS011;6119;52.372;8.990;2023-03-04T09:58:00;8.30;;;2.10;;
12110;SDS011;6119;52.372;8.990;2023-03-04T10:00:54;6.13;;;2.07;;
12110;SDS011;6119;52.372;8.990;2023-03-04T10:03:44;5.53;;;2.13;;
12110;SDS011;6119;52.372;8.990;2023-03-04T10:06:34;10.10;;;2.33;;
12110;SDS011;6119;52.372;8.990;2023-03-04T10:09:23;6.57;;;2.30;;
12110;SDS011;6119;52.372;8.990;2023-03-04T10:12:14;8.23;;;1.83;;
12110;SDS011;6119;52.372;8.990;2023-03-04T10:15:04;5.07;;;2.17;;
12110;SDS011;6119;52.372;8.990;2023-03-04T10:18:05;2.70;;;1.87;;
12110;SDS011;6119;52.372;8.990;2023-03-04T10:21:00;3.30;;;1.70;;
12110;SDS011;6119;52.372;8.990;2023-03-04T10:23:49;7.30;;;2.00;;
12110;SDS011;6119;52.372;8.990;2023-03-04T10:26:38;5.83;;;1.60;;
12110;SDS011;6119;52.372;8.990;2023-03-04T10:29:27;11.60;;;1.90;;
12110;SDS011;6119;52.372;8.990;2023-03-04T10:32:17;6.03;;;2.27;;
12110;SDS011;6119;52.372;8.990;2023-03-04T10:35:10;5.00;;;1.80;;
12110;SDS011;6119;52.372;8.990;2023-03-04T10:37:57;3.30;;;1.30;;
12110;SDS011;6119;52.372;8.990;2023-03-04T10:40:48;3.20;;;1.27;;
12110;SDS011;6119;52.372;8.990;2023-03-04T10:43:34;5.23;;;1.30;;
12110;SDS011;6119;52.372;8.990;2023-03-04T10:46:21;9.30;;;1.80;;
12110;SDS011;6119;52.372;8.990;2023-03-04T10:49:09;5.27;;;1.40;;
12110;SDS011;6119;52.372;8.990;2023-03-04T10:52:01;3.50;;;1.50;;
12110;SDS011;6119;52.372;8.990;2023-03-04T10:54:59;2.50;;;1.00;;
12110;SDS011;6119;52.372;8.990;2023-03-04T10:57:49;4.07;;;1.47;;
12110;SDS011;6119;52.372;8.990;2023-03-04T11:00:42;6.87;;;1.37;;
12110;SDS011;6119;52.372;8.990;2023-03-04T11:03:30;11.20;;;2.07;;
12110;SDS011;6119;52.372;8.990;2023-03-04T11:06:19;6.60;;;1.33;;
12110;SDS011;6119;52.372;8.990;2023-03-04T11:09:16;3.87;;;1.30;;
12110;SDS011;6119;52.372;8.990;2023-03-04T11:12:09;6.07;;;1.67;;
12110;SDS011;6119;52.372;8.990;2023-03-04T11:14:56;8.70;;;2.73;;
12110;SDS011;6119;52.372;8.990;2023-03-04T11:17:44;4.93;;;1.50;;
12110;SDS011;6119;52.372;8.990;2023-03-04T11:20:35;4.33;;;1.10;;
12110;SDS011;6119;52.372;8.990;2023-03-04T11:23:27;4.87;;;1.50;;
12110;SDS011;6119;52.372;8.990;2023-03-04T11:26:22;8.07;;;1.80;;
12110;SDS011;6119;52.372;8.990;2023-03-04T11:29:14;3.53;;;1.40;;
12110;SDS011;6119;52.372;8.990;2023-03-04T11:32:05;6.00;;;1.43;;
12110;SDS011;6119;52.372;8.990;2023-03-04T11:34:57;6.93;;;1.53;;
12110;SDS011;6119;52.372;8.990;2023-03-04T11:37:50;4.73;;;1.30;;
12110;SDS011;6119;52.372;8.990;2023-03-04T11:40:44;1.57;;;1.10;;
12110;SDS011;6119;52.372;8.990;2023-03-04T11:43:35;6.20;;;1.47;;
12110;SDS011;6119;52.372;8.990;2023-03-04T11:46:29;2.53;;;1.43;;
12110;SDS011;6119;52.372;8.990;2023-03-04T11:53:07;4.77;;;1.40;;
12110;SDS011;6119;52.372;8.990;2023-03-04T11:56:23;3.47;;;1.40;;
12110;SDS011;6119;52.372;8.990;2023-03-04T11:59:27;5.87;;;1.10;;
12110;SDS011;6119;52.372;8.990;2023-03-04T12:02:28;4.20;;;1.77;;
12110;SDS011;6119;52.372;8.990;2023-03-04T12:05:26;5.47;;;1.50;;
12110;SDS011;6119;52.372;8.990;2023-03-04T12:08:26;9.30;;;1.83;;
12110;SDS011;6119;52.372;8.990;2023-03-04T12:11:27;11.30;;;1.13;;
12110;SDS011;6119;52.372;8.990;2023-03-04T12:14:30;9.07;;;1.50;;
12110;SDS011;6119;52.372;8.990;2023-03-04T12:17:28;7.60;;;1.70;;
12110;SDS011;6119;52.372;8.990;2023-03-04T12:20:30;5.10;;;1.40;;
12110;SDS011;6119;52.372;8.990;2023-03-04T12:23:54;9.83;;;1.97;;
12110;SDS011;6119;52.372;8.990;2023-03-04T12:26:59;7.60;;;1.70;;
12110;SDS011;6119;52.372;8.990;2023-03-04T12:29:57;7.17;;;1.70;;
12110;SDS011;6119;52.372;8.990;2023-03-04T12:32:51;4.70;;;1.80;;
12110;SDS011;6119;52.372;8.990;2023-03-04T12:35:44;4.10;;;1.23;;
12110;SDS011;6119;52.372;8.990;2023-03-04T12:38:40;7.93;;;1.83;;
12110;SDS011;6119;52.372;8.990;2023-03-04T12:41:41;5.53;;;1.30;;
12110;SDS011;6119;52.372;8.990;2023-03-04T12:44:34;7.67;;;1.33;;
12110;SDS011;6119;52.372;8.990;2023-03-04T12:47:30;6.03;;;1.60;;
12110;SDS011;6119;52.372;8.990;2023-03-04T12:50:30;6.80;;;1.70;;
12110;SDS011;6119;52.372;8.990;2023-03-04T12:53:27;8.83;;;1.77;;
12110;SDS011;6119;52.372;8.990;2023-03-04T12:56:21;8.97;;;2.23;;
12110;SDS011;6119;52.372;8.990;2023-03-04T12:59:13;11.77;;;2.23;;
12110;SDS011;6119;52.372;8.990;2023-03-04T13:02:07;6.17;;;2.00;;
12110;SDS011;6119;52.372;8.990;2023-03-04T13:05:18;8.03;;;2.03;;
12110;SDS011;6119;52.372;8.990;2023-03-04T13:08:11;9.53;;;1.70;;
12110;SDS011;6119;52.372;8.990;2023-03-04T13:11:31;4.83;;;1.60;;
12110;SDS011;6119;52.372;8.990;2023-03-04T13:14:39;5.10;;;1.77;;
12110;SDS011;6119;52.372;8.990;2023-03-04T13:17:46;6.03;;;1.70;;
12110;SDS011;6119;52.372;8.990;2023-03-04T13:20:37;7.27;;;1.87;;
12110;SDS011;6119;52.372;8.990;2023-03-04T13:23:26;5.70;;;1.70;;
12110;SDS011;6119;52.372;8.990;2023-03-04T13:26:16;2.50;;;1.30;;
12110;SDS011;6119;52.372;8.990;2023-03-04T13:29:29;4.97;;;1.27;;
12110;SDS011;6119;52.372;8.990;2023-03-04T13:32:33;3.60;;;1.33;;
12110;SDS011;6119;52.372;8.990;2023-03-04T13:38:37;5.23;;;1.23;;
12110;SDS011;6119;52.372;8.990;2023-03-04T13:41:28;5.97;;;1.37;;
12110;SDS011;6119;52.372;8.990;2023-03-04T13:44:30;6.07;;;1.90;;
12110;SDS011;6119;52.372;8.990;2023-03-04T13:47:20;4.80;;;1.67;;
12110;SDS011;6119;52.372;8.990;2023-03-04T13:53:41;8.60;;;1.83;;
12110;SDS011;6119;52.372;8.990;2023-03-04T13:56:30;8.83;;;2.13;;
12110;SDS011;6119;52.372;8.990;2023-03-04T13:59:23;4.53;;;1.63;;
12110;SDS011;6119;52.372;8.990;2023-03-04T14:02:13;2.60;;;1.40;;
12110;SDS011;6119;52.372;8.990;2023-03-04T14:05:04;4.87;;;1.50;;
12110;SDS011;6119;52.372;8.990;2023-03-04T14:07:51;7.40;;;2.10;;
12110;SDS011;6119;52.372;8.990;2023-03-04T14:10:39;4.93;;;1.60;;
12110;SDS011;6119;52.372;8.990;2023-03-04T14:13:26;5.57;;;1.17;;
12110;SDS011;6119;52.372;8.990;2023-03-04T14:16:14;3.87;;;1.70;;
12110;SDS011;6119;52.372;8.990;2023-03-04T14:19:06;7.47;;;1.87;;
12110;SDS011;6119;52.372;8.990;2023-03-04T14:21:59;6.00;;;2.00;;
12110;SDS011;6119;52.372;8.990;2023-03-04T14:24:54;8.73;;;1.70;;
12110;SDS011;6119;52.372;8.990;2023-03-04T14:27:43;7.73;;;2.10;;
12110;SDS011;6119;52.372;8.990;2023-03-04T14:30:31;8.70;;;2.17;;
12110;SDS011;6119;52.372;8.990;2023-03-04T14:33:28;7.57;;;2.00;;
12110;SDS011;6119;52.372;8.990;2023-03-04T14:36:16;6.57;;;1.60;;
12110;SDS011;6119;52.372;8.990;2023-03-04T14:39:05;6.03;;;1.70;;
12110;SDS011;6119;52.372;8.990;2023-03-04T14:41:52;7.23;;;1.93;;
12110;SDS011;6119;52.372;8.990;2023-03-04T14:44:43;8.33;;;1.90;;
12110;SDS011;6119;52.372;8.990;2023-03-04T14:47:34;10.80;;;2.00;;
12110;SDS011;6119;52.372;8.990;2023-03-04T14:50:23;5.30;;;1.63;;
12110;SDS011;6119;52.372;8.990;2023-03-04T14:53:13;6.50;;;1.90;;
12110;SDS011;6119;52.372;8.990;2023-03-04T14:56:01;4.63;;;1.17;;
12110;SDS011;6119;52.372;8.990;2023-03-04T14:58:51;4.90;;;1.43;;
12110;SDS011;6119;52.372;8.990;2023-03-04T15:01:40;4.33;;;1.30;;
12110;SDS011;6119;52.372;8.990;2023-03-04T15:04:28;4.40;;;1.27;;
12110;SDS011;6119;52.372;8.990;2023-03-04T15:07:15;4.40;;;1.23;;
12110;SDS011;6119;52.372;8.990;2023-03-04T15:10:04;5.70;;;1.03;;
12110;SDS011;6119;52.372;8.990;2023-03-04T15:12:53;3.77;;;1.27;;
12110;SDS011;6119;52.372;8.990;2023-03-04T15:15:44;6.27;;;1.50;;
12110;SDS011;6119;52.372;8.990;2023-03-04T15:18:34;7.33;;;1.63;;
12110;SDS011;6119;52.372;8.990;2023-03-04T15:21:28;4.73;;;1.70;;
12110;SDS011;6119;52.372;8.990;2023-03-04T15:24:17;6.13;;;1.67;;
12110;SDS011;6119;52.372;8.990;2023-03-04T15:27:04;9.33;;;1.73;;
12110;SDS011;6119;52.372;8.990;2023-03-04T15:29:53;7.57;;;1.70;;
12110;SDS011;6119;52.372;8.990;2023-03-04T15:32:43;8.60;;;1.77;;
12110;SDS011;6119;52.372;8.990;2023-03-04T15:35:31;8.57;;;2.37;;
12110;SDS011;6119;52.372;8.990;2023-03-04T15:38:18;4.27;;;1.70;;
12110;SDS011;6119;52.372;8.990;2023-03-04T15:41:05;7.20;;;1.80;;
12110;SDS011;6119;52.372;8.990;2023-03-04T15:43:54;9.17;;;2.70;;
12110;SDS011;6119;52.372;8.990;2023-03-04T15:46:41;7.77;;;2.70;;
12110;SDS011;6119;52.372;8.990;2023-03-04T15:49:27;13.30;;;2.63;;
12110;SDS011;6119;52.372;8.990;2023-03-04T15:52:16;7.77;;;2.97;;
12110;SDS011;6119;52.372;8.990;2023-03-04T15:55:06;7.70;;;2.40;;
12110;SDS011;6119;52.372;8.990;2023-03-04T15:57:55;7.93;;;2.20;;
12110;SDS011;6119;52.372;8.990;2023-03-04T16:00:43;10.30;;;1.93;;
12110;SDS011;6119;52.372;8.990;2023-03-04T16:03:30;13.70;;;2.20;;
12110;SDS011;6119;52.372;8.990;2023-03-04T16:06:17;7.80;;;1.70;;
12110;SDS011;6119;52.372;8.990;2023-03-04T16:09:08;9.67;;;2.60;;
12110;SDS011;6119;52.372;8.990;2023-03-04T16:11:58;10.90;;;3.13;;
12110;SDS011;6119;52.372;8.990;2023-03-04T16:14:45;5.07;;;3.03;;
12110;SDS011;6119;52.372;8.990;2023-03-04T16:17:33;7.90;;;2.43;;
12110;SDS011;6119;52.372;8.990;2023-03-04T16:20:23;9.97;;;2.87;;
12110;SDS011;6119;52.372;8.990;2023-03-04T16:23:13;8.60;;;2.93;;
12110;SDS011;6119;52.372;8.990;2023-03-04T16:26:04;10.33;;;2.43;;
12110;SDS011;6119;52.372;8.990;2023-03-04T16:28:56;9.10;;;1.77;;
12110;SDS011;6119;52.372;8.990;2023-03-04T16:31:44;4.10;;;1.53;;
12110;SDS011;6119;52.372;8.990;2023-03-04T16:34:30;9.20;;;1.93;;
12110;SDS011;6119;52.372;8.990;2023-03-04T16:37:18;5.47;;;1.63;;
12110;SDS011;6119;52.372;8.990;2023-03-04T16:40:06;9.23;;;1.90;;
12110;SDS011;6119;52.372;8.990;2023-03-04T16:42:55;5.40;;;2.10;;
12110;SDS011;6119;52.372;8.990;2023-03-04T16:45:42;9.33;;;2.10;;
12110;SDS011;6119;52.372;8.990;2023-03-04T16:48:29;6.33;;;1.97;;
12110;SDS011;6119;52.372;8.990;2023-03-04T16:51:16;7.50;;;1.77;;
12110;SDS011;6119;52.372;8.990;2023-03-04T16:54:05;3.27;;;1.40;;
12110;SDS011;6119;52.372;8.990;2023-03-04T16:56:57;13.03;;;1.83;;
12110;SDS011;6119;52.372;8.990;2023-03-04T16:59:46;7.63;;;2.20;;
12110;SDS011;6119;52.372;8.990;2023-03-04T17:02:32;6.97;;;2.17;;
12110;SDS011;6119;52.372;8.990;2023-03-04T17:05:19;11.07;;;1.90;;
12110;SDS011;6119;52.372;8.990;2023-03-04T17:08:07;11.10;;;1.70;;
12110;SDS011;6119;52.372;8.990;2023-03-04T17:10:54;10.17;;;1.90;;
12110;SDS011;6119;52.372;8.990;2023-03-04T17:13:40;7.47;;;1.93;;
12110;SDS011;6119;52.372;8.990;2023-03-04T17:16:28;6.30;;;1.63;;
12110;SDS011;6119;52.372;8.990;2023-03-04T17:19:14;5.37;;;1.70;;
12110;SDS011;6119;52.372;8.990;2023-03-04T17:22:02;7.73;;;1.90;;
12110;SDS011;6119;52.372;8.990;2023-03-04T17:24:49;7.70;;;2.10;;
12110;SDS011;6119;52.372;8.990;2023-03-04T17:27:35;9.33;;;2.50;;